sensor_id;sensor_type;location;lat;lon;timestamp;P1;durP1;ratioP1;P2;durP2;ratioP2
8177;SDS011;4130;48.740;9.132;2022-11-21T00:00:57;0.30;;;0.30;;
8177;SDS011;4130;48.740;9.132;2022-11-21T00:03:25;0.30;;;0.30;;
8177;SDS011;4130;48.740;9.132;2022-11-21T00:05:52;0.30;;;0.30;;
8177;SDS011;4130;48.740;9.132;2022-11-21T00:08:20;0.73;;;0.30;;
8177;SDS011;4130;48.740;9.132;2022-11-21T00:10:48;0.33;;;0.17;;
8177;SDS011;4130;48.740;9.132;2022-11-21T00:13:16;0.30;;;0.30;;
8177;SDS011;4130;48.740;9.132;2022-11-21T00:15:44;0.90;;;0.20;;
8177;SDS011;4130;48.740;9.132;2022-11-21T00:18:12;0.20;;;0.10;;
8177;SDS011;4130;48.740;9.132;2022-11-21T00:20:39;0.30;;;0.30;;
8177;SDS011;4130;48.740;9.132;2022-11-21T00:23:07;0.47;;;0.20;;
8177;SDS011;4130;48.740;9.132;2022-11-21T00:25:34;0.27;;;0.20;;
8177;SDS011;4130;48.740;9.132;2022-11-21T00:28:03;0.20;;;0.20;;
8177;SDS011;4130;48.740;9.132;2022-11-21T00:30:30;0.13;;;0.13;;
8177;SDS011;4130;48.740;9.132;2022-11-21T00:32:57;0.23;;;0.20;;
8177;SDS011;4130;48.740;9.132;2022-11-21T00:35:24;0.10;;;0.10;;
8177;SDS011;4130;48.740;9.132;2022-11-21T00:37:51;0.10;;;0.10;;
8177;SDS011;4130;48.740;9.132;2022-11-21T00:40:18;0.00;;;0.00;;
8177;SDS011;4130;48.740;9.132;2022-11-21T00:42:45;0.00;;;0.00;;
8177;SDS011;4130;48.740;9.132;2022-11-21T00:45:13;0.03;;;0.03;;
8177;SDS011;4130;48.740;9.132;2022-11-21T00:47:40;0.10;;;0.10;;
8177;SDS011;4130;48.740;9.132;2022-11-21T00:50:08;0.07;;;0.07;;
8177;SDS011;4130;48.740;9.132;2022-11-21T00:52:35;0.10;;;0.10;;
8177;SDS011;4130;48.740;9.132;2022-11-21T00:55:02;0.00;;;0.00;;
8177;SDS011;4130;48.740;9.132;2022-11-21T00:57:29;0.10;;;0.10;;
8177;SDS011;4130;48.740;9.132;2022-11-21T00:59:56;0.10;;;0.10;;
8177;SDS011;4130;48.740;9.132;2022-11-21T01:02:24;0.00;;;0.00;;
8177;SDS011;4130;48.740;9.132;2022-11-21T01:04:51;0.10;;;0.10;;
8177;SDS011;4130;48.740;9.132;2022-11-21T01:07:18;0.20;;;0.20;;
8177;SDS011;4130;48.740;9.132;2022-11-21T01:09:45;0.10;;;0.10;;
8177;SDS011;4130;48.740;9.132;2022-11-21T01:12:12;0.30;;;0.10;;
8177;SDS011;4130;48.740;9.132;2022-11-21T01:14:39;0.40;;;0.20;;
8177;SDS011;4130;48.740;9.132;2022-11-21T01:17:06;0.30;;;0.10;;
8177;SDS011;4130;48.740;9.132;2022-11-21T01:19:34;0.20;;;0.20;;
8177;SDS011;4130;48.740;9.132;2022-11-21T01:22:01;0.50;;;0.27;;
8177;SDS011;4130;48.740;9.132;2022-11-21T01:24:28;0.17;;;0.17;;
8177;SDS011;4130;48.740;9.132;2022-11-21T01:26:55;0.83;;;0.40;;
8177;SDS011;4130;48.740;9.132;2022-11-21T01:29:22;0.30;;;0.30;;
8177;SDS011;4130;48.740;9.132;2022-11-21T01:31:49;0.30;;;0.17;;
8177;SDS011;4130;48.740;9.132;2022-11-21T01:34:16;0.20;;;0.20;;
8177;SDS011;4130;48.740;9.132;2022-11-21T01:36:44;1.70;;;0.50;;
8177;SDS011;4130;48.740;9.132;2022-11-21T01:39:11;1.13;;;0.60;;
8177;SDS011;4130;48.740;9.132;2022-11-21T01:41:39;0.10;;;0.10;;
8177;SDS011;4130;48.740;9.132;2022-11-21T01:44:09;0.40;;;0.40;;
8177;SDS011;4130;48.740;9.132;2022-11-21T01:46:42;1.37;;;0.40;;
8177;SDS011;4130;48.740;9.132;2022-11-21T01:49:09;0.50;;;0.50;;
8177;SDS011;4130;48.740;9.132;2022-11-21T01:51:39;0.13;;;0.13;;
8177;SDS011;4130;48.740;9.132;2022-11-21T01:54:12;0.30;;;0.30;;
8177;SDS011;4130;48.740;9.132;2022-11-21T01:56:44;0.47;;;0.30;;
8177;SDS011;4130;48.740;9.132;2022-11-21T01:59:17;1.13;;;0.17;;
8177;SDS011;4130;48.740;9.132;2022-11-21T02:01:48;0.30;;;0.20;;
8177;SDS011;4130;48.740;9.132;2022-11-21T02:04:18;1.20;;;0.47;;
8177;SDS011;4130;48.740;9.132;2022-11-21T02:06:46;0.30;;;0.30;;
8177;SDS011;4130;48.740;9.132;2022-11-21T02:09:15;0.63;;;0.50;;
8177;SDS011;4130;48.740;9.132;2022-11-21T02:11:43;0.53;;;0.20;;
8177;SDS011;4130;48.740;9.132;2022-11-21T02:14:15;0.70;;;0.30;;
8177;SDS011;4130;48.740;9.132;2022-11-21T02:16:43;0.37;;;0.27;;
8177;SDS011;4130;48.740;9.132;2022-11-21T02:19:13;0.37;;;0.33;;
8177;SDS011;4130;48.740;9.132;2022-11-21T02:21:46;0.40;;;0.30;;
8177;SDS011;4130;48.740;9.132;2022-11-21T02:24:21;0.50;;;0.20;;
8177;SDS011;4130;48.740;9.132;2022-11-21T02:26:56;0.27;;;0.13;;
8177;SDS011;4130;48.740;9.132;2022-11-21T02:29:24;0.40;;;0.30;;
8177;SDS011;4130;48.740;9.132;2022-11-21T02:31:52;0.63;;;0.17;;
8177;SDS011;4130;48.740;9.132;2022-11-21T02:34:18;0.20;;;0.10;;
8177;SDS011;4130;48.740;9.132;2022-11-21T02:36:46;0.40;;;0.40;;
8177;SDS011;4130;48.740;9.132;2022-11-21T02:39:14;0.10;;;0.10;;
8177;SDS011;4130;48.740;9.132;2022-11-21T02:41:47;0.33;;;0.30;;
8177;SDS011;4130;48.740;9.132;2022-11-21T02:44:21;1.10;;;0.20;;
8177;SDS011;4130;48.740;9.132;2022-11-21T02:46:52;0.20;;;0.20;;
8177;SDS011;4130;48.740;9.132;2022-11-21T02:49:28;0.00;;;0.00;;
8177;SDS011;4130;48.740;9.132;2022-11-21T02:51:59;0.37;;;0.23;;
8177;SDS011;4130;48.740;9.132;2022-11-21T02:54:26;0.33;;;0.33;;
8177;SDS011;4130;48.740;9.132;2022-11-21T02:56:53;0.30;;;0.17;;
8177;SDS011;4130;48.740;9.132;2022-11-21T02:59:22;0.70;;;0.20;;
8177;SDS011;4130;48.740;9.132;2022-11-21T03:01:49;0.20;;;0.20;;
8177;SDS011;4130;48.740;9.132;2022-11-21T03:04:16;0.20;;;0.20;;
8177;SDS011;4130;48.740;9.132;2022-11-21T03:06:43;1.13;;;0.23;;
8177;SDS011;4130;48.740;9.132;2022-11-21T03:09:10;0.20;;;0.10;;
8177;SDS011;4130;48.740;9.132;2022-11-21T03:11:37;0.60;;;0.10;;
8177;SDS011;4130;48.740;9.132;2022-11-21T03:14:04;0.00;;;0.00;;
8177;SDS011;4130;48.740;9.132;2022-11-21T03:16:32;0.20;;;0.20;;
8177;SDS011;4130;48.740;9.132;2022-11-21T03:18:59;0.10;;;0.10;;
8177;SDS011;4130;48.740;9.132;2022-11-21T03:21:26;0.10;;;0.10;;
8177;SDS011;4130;48.740;9.132;2022-11-21T03:23:53;0.10;;;0.10;;
8177;SDS011;4130;48.740;9.132;2022-11-21T03:26:20;0.10;;;0.03;;
8177;SDS011;4130;48.740;9.132;2022-11-21T03:28:47;0.50;;;0.20;;
8177;SDS011;4130;48.740;9.132;2022-11-21T03:31:13;0.10;;;0.10;;
8177;SDS011;4130;48.740;9.132;2022-11-21T03:33:42;0.10;;;0.07;;
8177;SDS011;4130;48.740;9.132;2022-11-21T03:36:09;0.10;;;0.00;;
8177;SDS011;4130;48.740;9.132;2022-11-21T03:38:36;0.50;;;0.20;;
8177;SDS011;4130;48.740;9.132;2022-11-21T03:41:03;0.10;;;0.10;;
8177;SDS011;4130;48.740;9.132;2022-11-21T03:43:50;0.20;;;0.20;;
8177;SDS011;4130;48.740;9.132;2022-11-21T03:46:17;1.43;;;0.27;;
8177;SDS011;4130;48.740;9.132;2022-11-21T03:48:46;1.60;;;0.27;;
8177;SDS011;4130;48.740;9.132;2022-11-21T03:51:13;0.00;;;0.00;;
8177;SDS011;4130;48.740;9.132;2022-11-21T03:53:40;0.40;;;0.37;;
8177;SDS011;4130;48.740;9.132;2022-11-21T03:56:07;0.17;;;0.17;;
8177;SDS011;4130;48.740;9.132;2022-11-21T03:58:34;0.17;;;0.17;;
8177;SDS011;4130;48.740;9.132;2022-11-21T04:01:01;0.00;;;0.00;;
8177;SDS011;4130;48.740;9.132;2022-11-21T04:03:28;0.03;;;0.03;;
8177;SDS011;4130;48.740;9.132;2022-11-21T04:05:56;0.10;;;0.10;;
8177;SDS011;4130;48.740;9.132;2022-11-21T04:08:23;0.10;;;0.10;;
8177;SDS011;4130;48.740;9.132;2022-11-21T04:10:51;0.30;;;0.30;;
8177;SDS011;4130;48.740;9.132;2022-11-21T04:13:18;0.10;;;0.10;;
8177;SDS011;4130;48.740;9.132;2022-11-21T04:15:46;0.17;;;0.17;;
8177;SDS011;4130;48.740;9.132;2022-11-21T04:18:13;0.10;;;0.10;;
8177;SDS011;4130;48.740;9.132;2022-11-21T04:20:40;0.10;;;0.10;;
8177;SDS011;4130;48.740;9.132;2022-11-21T04:23:09;0.20;;;0.17;;
8177;SDS011;4130;48.740;9.132;2022-11-21T04:25:36;0.10;;;0.10;;
8177;SDS011;4130;48.740;9.132;2022-11-21T04:28:03;0.10;;;0.10;;
8177;SDS011;4130;48.740;9.132;2022-11-21T04:30:31;0.00;;;0.00;;
8177;SDS011;4130;48.740;9.132;2022-11-21T04:32:59;0.03;;;0.03;;
8177;SDS011;4130;48.740;9.132;2022-11-21T04:35:26;1.20;;;0.10;;
8177;SDS011;4130;48.740;9.132;2022-11-21T04:37:53;0.87;;;0.37;;
8177;SDS011;4130;48.740;9.132;2022-11-21T04:40:21;0.30;;;0.30;;
8177;SDS011;4130;48.740;9.132;2022-11-21T04:42:48;0.50;;;0.50;;
8177;SDS011;4130;48.740;9.132;2022-11-21T04:45:15;0.60;;;0.60;;
8177;SDS011;4130;48.740;9.132;2022-11-21T04:47:43;0.40;;;0.40;;
8177;SDS011;4130;48.740;9.132;2022-11-21T04:50:11;0.30;;;0.20;;
8177;SDS011;4130;48.740;9.132;2022-11-21T04:52:41;0.87;;;0.40;;
8177;SDS011;4130;48.740;9.132;2022-11-21T04:55:08;0.87;;;0.50;;
8177;SDS011;4130;48.740;9.132;2022-11-21T04:57:36;0.00;;;0.00;;
8177;SDS011;4130;48.740;9.132;2022-11-21T05:00:03;0.40;;;0.30;;
8177;SDS011;4130;48.740;9.132;2022-11-21T05:02:31;0.10;;;0.10;;
8177;SDS011;4130;48.740;9.132;2022-11-21T05:04:58;0.17;;;0.10;;
8177;SDS011;4130;48.740;9.132;2022-11-21T05:07:25;0.20;;;0.20;;
8177;SDS011;4130;48.740;9.132;2022-11-21T05:09:52;0.17;;;0.10;;
8177;SDS011;4130;48.740;9.132;2022-11-21T05:12:19;0.17;;;0.17;;
8177;SDS011;4130;48.740;9.132;2022-11-21T05:15:05;0.97;;;0.20;;
8177;SDS011;4130;48.740;9.132;2022-11-21T05:17:33;1.83;;;0.20;;
8177;SDS011;4130;48.740;9.132;2022-11-21T05:19:59;2.23;;;0.07;;
8177;SDS011;4130;48.740;9.132;2022-11-21T05:22:26;0.00;;;0.00;;
8177;SDS011;4130;48.740;9.132;2022-11-21T05:24:53;0.47;;;0.47;;
8177;SDS011;4130;48.740;9.132;2022-11-21T05:27:20;0.20;;;0.20;;
8177;SDS011;4130;48.740;9.132;2022-11-21T05:29:47;0.30;;;0.30;;
8177;SDS011;4130;48.740;9.132;2022-11-21T05:32:15;0.73;;;0.47;;
8177;SDS011;4130;48.740;9.132;2022-11-21T05:34:42;0.43;;;0.30;;
8177;SDS011;4130;48.740;9.132;2022-11-21T05:37:09;0.30;;;0.30;;
8177;SDS011;4130;48.740;9.132;2022-11-21T05:39:36;0.20;;;0.20;;
8177;SDS011;4130;48.740;9.132;2022-11-21T05:42:03;0.20;;;0.20;;
8177;SDS011;4130;48.740;9.132;2022-11-21T05:44:30;0.50;;;0.47;;
8177;SDS011;4130;48.740;9.132;2022-11-21T05:46:56;0.40;;;0.40;;
8177;SDS011;4130;48.740;9.132;2022-11-21T05:49:24;0.50;;;0.50;;
8177;SDS011;4130;48.740;9.132;2022-11-21T05:51:54;0.20;;;0.20;;
8177;SDS011;4130;48.740;9.132;2022-11-21T05:54:21;0.37;;;0.17;;
8177;SDS011;4130;48.740;9.132;2022-11-21T05:56:48;0.47;;;0.47;;
8177;SDS011;4130;48.740;9.132;2022-11-21T05:59:15;0.63;;;0.40;;
8177;SDS011;4130;48.740;9.132;2022-11-21T06:01:42;0.33;;;0.33;;
8177;SDS011;4130;48.740;9.132;2022-11-21T06:04:27;0.53;;;0.27;;
8177;SDS011;4130;48.740;9.132;2022-11-21T06:06:54;0.20;;;0.20;;
8177;SDS011;4130;48.740;9.132;2022-11-21T06:09:21;0.37;;;0.37;;
8177;SDS011;4130;48.740;9.132;2022-11-21T06:11:48;0.50;;;0.50;;
8177;SDS011;4130;48.740;9.132;2022-11-21T06:14:15;1.33;;;0.87;;
8177;SDS011;4130;48.740;9.132;2022-11-21T06:16:42;0.77;;;0.50;;
8177;SDS011;4130;48.740;9.132;2022-11-21T06:19:09;0.93;;;0.57;;
8177;SDS011;4130;48.740;9.132;2022-11-21T06:21:37;0.47;;;0.47;;
8177;SDS011;4130;48.740;9.132;2022-11-21T06:24:05;0.50;;;0.50;;
8177;SDS011;4130;48.740;9.132;2022-11-21T06:26:33;0.57;;;0.40;;
8177;SDS011;4130;48.740;9.132;2022-11-21T06:28:59;1.17;;;0.47;;
8177;SDS011;4130;48.740;9.132;2022-11-21T06:31:26;0.30;;;0.30;;
8177;SDS011;4130;48.740;9.132;2022-11-21T06:33:56;0.23;;;0.23;;
8177;SDS011;4130;48.740;9.132;2022-11-21T06:36:24;0.50;;;0.50;;
8177;SDS011;4130;48.740;9.132;2022-11-21T06:38:53;1.70;;;0.70;;
8177;SDS011;4130;48.740;9.132;2022-11-21T06:41:21;0.20;;;0.20;;
8177;SDS011;4130;48.740;9.132;2022-11-21T06:43:49;1.40;;;0.63;;
8177;SDS011;4130;48.740;9.132;2022-11-21T06:46:16;0.30;;;0.30;;
8177;SDS011;4130;48.740;9.132;2022-11-21T06:48:44;0.43;;;0.43;;
8177;SDS011;4130;48.740;9.132;2022-11-21T06:51:11;0.23;;;0.23;;
8177;SDS011;4130;48.740;9.132;2022-11-21T06:53:42;0.40;;;0.40;;
8177;SDS011;4130;48.740;9.132;2022-11-21T06:56:10;0.37;;;0.37;;
8177;SDS011;4130;48.740;9.132;2022-11-21T06:58:37;0.53;;;0.53;;
8177;SDS011;4130;48.740;9.132;2022-11-21T07:01:05;0.40;;;0.40;;
8177;SDS011;4130;48.740;9.132;2022-11-21T07:03:33;0.40;;;0.40;;
8177;SDS011;4130;48.740;9.132;2022-11-21T07:06:00;0.50;;;0.50;;
8177;SDS011;4130;48.740;9.132;2022-11-21T07:08:29;0.40;;;0.40;;
8177;SDS011;4130;48.740;9.132;2022-11-21T07:10:59;0.60;;;0.60;;
8177;SDS011;4130;48.740;9.132;2022-11-21T07:13:28;0.77;;;0.57;;
8177;SDS011;4130;48.740;9.132;2022-11-21T07:15:59;0.50;;;0.50;;
8177;SDS011;4130;48.740;9.132;2022-11-21T07:18:27;0.60;;;0.60;;
8177;SDS011;4130;48.740;9.132;2022-11-21T07:20:56;1.10;;;0.50;;
8177;SDS011;4130;48.740;9.132;2022-11-21T07:23:23;0.67;;;0.67;;
8177;SDS011;4130;48.740;9.132;2022-11-21T07:25:51;0.60;;;0.50;;
8177;SDS011;4130;48.740;9.132;2022-11-21T07:28:18;1.23;;;0.67;;
8177;SDS011;4130;48.740;9.132;2022-11-21T07:30:46;1.50;;;0.93;;
8177;SDS011;4130;48.740;9.132;2022-11-21T07:33:13;4.07;;;0.80;;
8177;SDS011;4130;48.740;9.132;2022-11-21T07:35:40;1.03;;;0.73;;
8177;SDS011;4130;48.740;9.132;2022-11-21T07:38:07;0.40;;;0.40;;
8177;SDS011;4130;48.740;9.132;2022-11-21T07:40:34;1.53;;;0.70;;
8177;SDS011;4130;48.740;9.132;2022-11-21T07:43:02;0.83;;;0.67;;
8177;SDS011;4130;48.740;9.132;2022-11-21T07:45:30;0.63;;;0.63;;
8177;SDS011;4130;48.740;9.132;2022-11-21T07:47:59;1.40;;;0.80;;
8177;SDS011;4130;48.740;9.132;2022-11-21T07:50:26;1.07;;;0.80;;
8177;SDS011;4130;48.740;9.132;2022-11-21T07:52:57;0.90;;;0.80;;
8177;SDS011;4130;48.740;9.132;2022-11-21T07:55:24;0.80;;;0.80;;
8177;SDS011;4130;48.740;9.132;2022-11-21T07:57:57;1.00;;;0.60;;
8177;SDS011;4130;48.740;9.132;2022-11-21T08:00:24;0.77;;;0.77;;
8177;SDS011;4130;48.740;9.132;2022-11-21T08:02:52;0.60;;;0.60;;
8177;SDS011;4130;48.740;9.132;2022-11-21T08:05:20;0.70;;;0.70;;
8177;SDS011;4130;48.740;9.132;2022-11-21T08:07:47;2.50;;;0.60;;
8177;SDS011;4130;48.740;9.132;2022-11-21T08:10:14;0.70;;;0.53;;
8177;SDS011;4130;48.740;9.132;2022-11-21T08:12:42;0.80;;;0.80;;
8177;SDS011;4130;48.740;9.132;2022-11-21T08:15:09;1.27;;;1.17;;
8177;SDS011;4130;48.740;9.132;2022-11-21T08:17:37;1.93;;;0.90;;
8177;SDS011;4130;48.740;9.132;2022-11-21T08:20:04;1.87;;;1.00;;
8177;SDS011;4130;48.740;9.132;2022-11-21T08:22:37;1.07;;;0.83;;
8177;SDS011;4130;48.740;9.132;2022-11-21T08:25:05;1.30;;;0.97;;
8177;SDS011;4130;48.740;9.132;2022-11-21T08:27:33;2.03;;;0.90;;
8177;SDS011;4130;48.740;9.132;2022-11-21T08:30:01;1.97;;;0.87;;
8177;SDS011;4130;48.740;9.132;2022-11-21T08:32:29;1.27;;;0.70;;
8177;SDS011;4130;48.740;9.132;2022-11-21T08:34:56;0.63;;;0.60;;
8177;SDS011;4130;48.740;9.132;2022-11-21T08:37:23;1.13;;;0.70;;
8177;SDS011;4130;48.740;9.132;2022-11-21T08:39:54;0.90;;;0.83;;
8177;SDS011;4130;48.740;9.132;2022-11-21T08:42:23;1.77;;;1.00;;
8177;SDS011;4130;48.740;9.132;2022-11-21T08:44:49;1.20;;;1.00;;
8177;SDS011;4130;48.740;9.132;2022-11-21T08:47:17;1.90;;;1.07;;
8177;SDS011;4130;48.740;9.132;2022-11-21T08:49:44;0.70;;;0.70;;
8177;SDS011;4130;48.740;9.132;2022-11-21T08:52:11;1.00;;;0.70;;
8177;SDS011;4130;48.740;9.132;2022-11-21T08:54:38;0.93;;;0.80;;
8177;SDS011;4130;48.740;9.132;2022-11-21T08:57:07;1.23;;;1.20;;
8177;SDS011;4130;48.740;9.132;2022-11-21T08:59:34;0.60;;;0.60;;
8177;SDS011;4130;48.740;9.132;2022-11-21T09:02:00;0.90;;;0.80;;
8177;SDS011;4130;48.740;9.132;2022-11-21T09:04:27;1.27;;;0.80;;
8177;SDS011;4130;48.740;9.132;2022-11-21T09:06:54;1.40;;;0.90;;
8177;SDS011;4130;48.740;9.132;2022-11-21T09:09:21;1.00;;;0.90;;
8177;SDS011;4130;48.740;9.132;2022-11-21T09:11:48;1.27;;;0.90;;
8177;SDS011;4130;48.740;9.132;2022-11-21T09:14:16;4.63;;;1.30;;
8177;SDS011;4130;48.740;9.132;2022-11-21T09:17:01;1.33;;;0.97;;
8177;SDS011;4130;48.740;9.132;2022-11-21T09:19:45;3.57;;;1.10;;
8177;SDS011;4130;48.740;9.132;2022-11-21T09:22:12;4.90;;;1.20;;
8177;SDS011;4130;48.740;9.132;2022-11-21T09:24:38;1.87;;;1.13;;
8177;SDS011;4130;48.740;9.132;2022-11-21T09:27:05;3.80;;;1.10;;
8177;SDS011;4130;48.740;9.132;2022-11-21T09:29:34;1.67;;;1.10;;
8177;SDS011;4130;48.740;9.132;2022-11-21T09:32:01;1.97;;;1.37;;
8177;SDS011;4130;48.740;9.132;2022-11-21T09:34:27;3.57;;;1.17;;
8177;SDS011;4130;48.740;9.132;2022-11-21T09:36:55;1.70;;;1.27;;
8177;SDS011;4130;48.740;9.132;2022-11-21T09:39:22;2.03;;;0.93;;
8177;SDS011;4130;48.740;9.132;2022-11-21T09:41:53;3.03;;;1.00;;
8177;SDS011;4130;48.740;9.132;2022-11-21T09:44:42;4.23;;;1.27;;
8177;SDS011;4130;48.740;9.132;2022-11-21T09:47:21;1.57;;;1.17;;
8177;SDS011;4130;48.740;9.132;2022-11-21T09:49:51;2.70;;;0.83;;
8177;SDS011;4130;48.740;9.132;2022-11-21T09:52:24;2.33;;;1.07;;
8177;SDS011;4130;48.740;9.132;2022-11-21T09:54:56;5.93;;;1.40;;
8177;SDS011;4130;48.740;9.132;2022-11-21T09:57:27;3.53;;;1.30;;
8177;SDS011;4130;48.740;9.132;2022-11-21T09:59:57;5.70;;;1.30;;
8177;SDS011;4130;48.740;9.132;2022-11-21T10:02:24;3.03;;;1.10;;
8177;SDS011;4130;48.740;9.132;2022-11-21T10:04:51;3.60;;;0.80;;
8177;SDS011;4130;48.740;9.132;2022-11-21T10:07:23;2.43;;;1.43;;
8177;SDS011;4130;48.740;9.132;2022-11-21T10:13:05;2.13;;;0.73;;
8177;SDS011;4130;48.740;9.132;2022-11-21T10:15:45;1.23;;;0.97;;
8177;SDS011;4130;48.740;9.132;2022-11-21T10:18:30;1.23;;;0.73;;
8177;SDS011;4130;48.740;9.132;2022-11-21T10:21:27;1.57;;;0.70;;
8177;SDS011;4130;48.740;9.132;2022-11-21T10:24:17;2.53;;;0.90;;
8177;SDS011;4130;48.740;9.132;2022-11-21T10:26:54;2.20;;;0.90;;
8177;SDS011;4130;48.740;9.132;2022-11-21T10:29:25;4.07;;;1.57;;
8177;SDS011;4130;48.740;9.132;2022-11-21T10:31:58;2.93;;;0.90;;
8177;SDS011;4130;48.740;9.132;2022-11-21T10:34:30;2.37;;;1.30;;
8177;SDS011;4130;48.740;9.132;2022-11-21T10:37:02;1.87;;;0.90;;
8177;SDS011;4130;48.740;9.132;2022-11-21T10:39:36;2.50;;;0.83;;
8177;SDS011;4130;48.740;9.132;2022-11-21T10:42:10;3.07;;;0.90;;
8177;SDS011;4130;48.740;9.132;2022-11-21T10:44:41;4.73;;;1.07;;
8177;SDS011;4130;48.740;9.132;2022-11-21T10:47:31;3.20;;;1.03;;
8177;SDS011;4130;48.740;9.132;2022-11-21T10:50:02;1.57;;;0.90;;
8177;SDS011;4130;48.740;9.132;2022-11-21T10:52:38;1.77;;;1.07;;
8177;SDS011;4130;48.740;9.132;2022-11-21T10:55:10;3.03;;;0.90;;
8177;SDS011;4130;48.740;9.132;2022-11-21T10:57:40;1.47;;;0.70;;
8177;SDS011;4130;48.740;9.132;2022-11-21T11:00:14;1.77;;;1.13;;
8177;SDS011;4130;48.740;9.132;2022-11-21T11:02:59;5.93;;;1.20;;
8177;SDS011;4130;48.740;9.132;2022-11-21T11:05:29;0.80;;;0.80;;
8177;SDS011;4130;48.740;9.132;2022-11-21T11:07:58;2.63;;;0.80;;
8177;SDS011;4130;48.740;9.132;2022-11-21T11:10:27;4.80;;;1.00;;
8177;SDS011;4130;48.740;9.132;2022-11-21T11:12:54;1.90;;;0.90;;
8177;SDS011;4130;48.740;9.132;2022-11-21T11:15:50;1.60;;;0.70;;
8177;SDS011;4130;48.740;9.132;2022-11-21T11:18:20;1.93;;;0.80;;
8177;SDS011;4130;48.740;9.132;2022-11-21T11:21:14;2.57;;;1.00;;
8177;SDS011;4130;48.740;9.132;2022-11-21T11:23:42;1.20;;;1.10;;
8177;SDS011;4130;48.740;9.132;2022-11-21T11:26:17;3.27;;;0.60;;
8177;SDS011;4130;48.740;9.132;2022-11-21T11:28:52;1.10;;;0.77;;
8177;SDS011;4130;48.740;9.132;2022-11-21T11:31:23;3.60;;;1.07;;
8177;SDS011;4130;48.740;9.132;2022-11-21T11:33:53;1.90;;;0.83;;
8177;SDS011;4130;48.740;9.132;2022-11-21T11:36:32;2.60;;;0.93;;
8177;SDS011;4130;48.740;9.132;2022-11-21T11:39:09;0.93;;;0.50;;
8177;SDS011;4130;48.740;9.132;2022-11-21T11:41:58;3.57;;;1.20;;
8177;SDS011;4130;48.740;9.132;2022-11-21T11:45:18;5.47;;;1.70;;
8177;SDS011;4130;48.740;9.132;2022-11-21T11:48:23;2.47;;;1.00;;
8177;SDS011;4130;48.740;9.132;2022-11-21T11:50:51;2.20;;;1.10;;
8177;SDS011;4130;48.740;9.132;2022-11-21T11:53:22;2.33;;;1.10;;
8177;SDS011;4130;48.740;9.132;2022-11-21T11:55:54;3.97;;;1.10;;
8177;SDS011;4130;48.740;9.132;2022-11-21T11:58:25;2.50;;;0.87;;
8177;SDS011;4130;48.740;9.132;2022-11-21T12:00:58;1.57;;;0.70;;
8177;SDS011;4130;48.740;9.132;2022-11-21T12:03:32;1.77;;;1.07;;
8177;SDS011;4130;48.740;9.132;2022-11-21T12:06:10;2.37;;;1.10;;
8177;SDS011;4130;48.740;9.132;2022-11-21T12:08:43;2.37;;;0.90;;
8177;SDS011;4130;48.740;9.132;2022-11-21T12:14:35;2.23;;;1.00;;
8177;SDS011;4130;48.740;9.132;2022-11-21T12:17:31;2.50;;;1.20;;
8177;SDS011;4130;48.740;9.132;2022-11-21T12:20:07;1.07;;;0.80;;
8177;SDS011;4130;48.740;9.132;2022-11-21T12:22:41;2.67;;;0.80;;
8177;SDS011;4130;48.740;9.132;2022-11-21T12:25:10;4.00;;;0.90;;
8177;SDS011;4130;48.740;9.132;2022-11-21T12:27:39;1.30;;;0.80;;
8177;SDS011;4130;48.740;9.132;2022-11-21T12:30:11;1.77;;;0.90;;
8177;SDS011;4130;48.740;9.132;2022-11-21T12:33:00;0.40;;;0.40;;
8177;SDS011;4130;48.740;9.132;2022-11-21T12:35:40;2.83;;;0.90;;
8177;SDS011;4130;48.740;9.132;2022-11-21T12:38:31;2.53;;;1.10;;
8177;SDS011;4130;48.740;9.132;2022-11-21T12:41:10;1.43;;;1.07;;
8177;SDS011;4130;48.740;9.132;2022-11-21T12:44:07;3.50;;;1.00;;
8177;SDS011;4130;48.740;9.132;2022-11-21T12:46:46;2.60;;;0.83;;
8177;SDS011;4130;48.740;9.132;2022-11-21T12:49:27;5.30;;;1.00;;
8177;SDS011;4130;48.740;9.132;2022-11-21T12:52:18;2.37;;;1.33;;
8177;SDS011;4130;48.740;9.132;2022-11-21T12:55:12;4.83;;;1.37;;
8177;SDS011;4130;48.740;9.132;2022-11-21T12:57:55;3.70;;;1.30;;
8177;SDS011;4130;48.740;9.132;2022-11-21T13:00:32;5.03;;;1.23;;
8177;SDS011;4130;48.740;9.132;2022-11-21T13:06:15;1.73;;;0.93;;
8177;SDS011;4130;48.740;9.132;2022-11-21T13:08:46;5.43;;;1.23;;
8177;SDS011;4130;48.740;9.132;2022-11-21T13:11:20;1.40;;;0.90;;
8177;SDS011;4130;48.740;9.132;2022-11-21T13:14:16;1.47;;;0.93;;
8177;SDS011;4130;48.740;9.132;2022-11-21T13:16:49;5.67;;;1.30;;
8177;SDS011;4130;48.740;9.132;2022-11-21T13:19:24;2.90;;;1.20;;
8177;SDS011;4130;48.740;9.132;2022-11-21T13:21:55;1.60;;;0.80;;
8177;SDS011;4130;48.740;9.132;2022-11-21T13:27:27;7.10;;;1.20;;
8177;SDS011;4130;48.740;9.132;2022-11-21T13:32:46;2.23;;;0.80;;
8177;SDS011;4130;48.740;9.132;2022-11-21T13:38:30;2.77;;;0.90;;
8177;SDS011;4130;48.740;9.132;2022-11-21T13:44:38;2.40;;;0.90;;
8177;SDS011;4130;48.740;9.132;2022-11-21T13:47:08;3.13;;;0.93;;
8177;SDS011;4130;48.740;9.132;2022-11-21T13:49:55;1.40;;;0.93;;
8177;SDS011;4130;48.740;9.132;2022-11-21T13:52:31;1.07;;;0.80;;
8177;SDS011;4130;48.740;9.132;2022-11-21T13:58:02;3.07;;;1.20;;
8177;SDS011;4130;48.740;9.132;2022-11-21T14:00:48;4.20;;;1.60;;
8177;SDS011;4130;48.740;9.132;2022-11-21T14:03:36;1.87;;;1.17;;
8177;SDS011;4130;48.740;9.132;2022-11-21T14:06:34;3.30;;;1.23;;
8177;SDS011;4130;48.740;9.132;2022-11-21T14:11:49;1.13;;;0.77;;
8177;SDS011;4130;48.740;9.132;2022-11-21T14:14:30;2.60;;;1.00;;
8177;SDS011;4130;48.740;9.132;2022-11-21T14:19:59;3.07;;;0.87;;
8177;SDS011;4130;48.740;9.132;2022-11-21T14:22:35;2.00;;;1.10;;
8177;SDS011;4130;48.740;9.132;2022-11-21T14:25:07;1.33;;;0.93;;
8177;SDS011;4130;48.740;9.132;2022-11-21T14:27:39;1.67;;;1.07;;
8177;SDS011;4130;48.740;9.132;2022-11-21T14:30:23;2.70;;;1.07;;
8177;SDS011;4130;48.740;9.132;2022-11-21T14:32:56;3.03;;;0.97;;
8177;SDS011;4130;48.740;9.132;2022-11-21T14:35:39;2.10;;;1.00;;
8177;SDS011;4130;48.740;9.132;2022-11-21T14:38:06;2.83;;;1.03;;
8177;SDS011;4130;48.740;9.132;2022-11-21T14:40:33;1.33;;;1.03;;
8177;SDS011;4130;48.740;9.132;2022-11-21T14:43:00;1.60;;;1.07;;
8177;SDS011;4130;48.740;9.132;2022-11-21T14:45:54;5.30;;;1.10;;
8177;SDS011;4130;48.740;9.132;2022-11-21T14:48:25;2.57;;;0.97;;
8177;SDS011;4130;48.740;9.132;2022-11-21T14:50:54;2.53;;;0.97;;
8177;SDS011;4130;48.740;9.132;2022-11-21T14:53:23;2.20;;;0.90;;
8177;SDS011;4130;48.740;9.132;2022-11-21T14:55:50;2.07;;;1.17;;
8177;SDS011;4130;48.740;9.132;2022-11-21T14:58:18;1.10;;;0.87;;
8177;SDS011;4130;48.740;9.132;2022-11-21T15:01:03;4.13;;;0.93;;
8177;SDS011;4130;48.740;9.132;2022-11-21T15:03:32;2.17;;;1.10;;
8177;SDS011;4130;48.740;9.132;2022-11-21T15:06:00;2.10;;;0.90;;
8177;SDS011;4130;48.740;9.132;2022-11-21T15:08:29;3.27;;;1.07;;
8177;SDS011;4130;48.740;9.132;2022-11-21T15:10:56;2.40;;;0.70;;
8177;SDS011;4130;48.740;9.132;2022-11-21T15:13:26;1.43;;;1.03;;
8177;SDS011;4130;48.740;9.132;2022-11-21T15:16:00;4.53;;;1.47;;
8177;SDS011;4130;48.740;9.132;2022-11-21T15:18:28;2.47;;;1.60;;
8177;SDS011;4130;48.740;9.132;2022-11-21T15:20:59;2.27;;;1.33;;
8177;SDS011;4130;48.740;9.132;2022-11-21T15:23:28;2.17;;;1.07;;
8177;SDS011;4130;48.740;9.132;2022-11-21T15:25:56;4.63;;;1.43;;
8177;SDS011;4130;48.740;9.132;2022-11-21T15:28:24;3.97;;;1.10;;
8177;SDS011;4130;48.740;9.132;2022-11-21T15:33:55;3.73;;;1.60;;
8177;SDS011;4130;48.740;9.132;2022-11-21T15:36:25;2.70;;;1.30;;
8177;SDS011;4130;48.740;9.132;2022-11-21T15:38:54;2.50;;;1.30;;
8177;SDS011;4130;48.740;9.132;2022-11-21T15:41:26;3.57;;;1.53;;
8177;SDS011;4130;48.740;9.132;2022-11-21T15:43:55;1.57;;;1.20;;
8177;SDS011;4130;48.740;9.132;2022-11-21T15:46:37;2.83;;;1.27;;
8177;SDS011;4130;48.740;9.132;2022-11-21T15:49:10;1.43;;;1.00;;
8177;SDS011;4130;48.740;9.132;2022-11-21T16:04:53;4.70;;;0.90;;
8177;SDS011;4130;48.740;9.132;2022-11-21T16:10:30;2.37;;;0.80;;
8177;SDS011;4130;48.740;9.132;2022-11-21T16:12:57;6.97;;;1.30;;
8177;SDS011;4130;48.740;9.132;2022-11-21T16:15:24;0.80;;;0.80;;
8177;SDS011;4130;48.740;9.132;2022-11-21T16:17:53;1.27;;;0.97;;
8177;SDS011;4130;48.740;9.132;2022-11-21T16:23:44;4.20;;;1.00;;
8177;SDS011;4130;48.740;9.132;2022-11-21T16:26:53;3.47;;;1.10;;
8177;SDS011;4130;48.740;9.132;2022-11-21T16:30:07;1.80;;;1.00;;
8177;SDS011;4130;48.740;9.132;2022-11-21T16:32:35;2.00;;;0.87;;